Time;durP1;ratioP1;P1;durP2;ratioP2;P2;SDS_P1;SDS_P2;PMS_P1;PMS_P2;Temp;Humidity;BMP_temperature;BMP_pressure;BME280_temperature;BME280_humidity;BME280_pressure;Samples;Min_cycle;Max_cycle;Signal;HPM_P1;HPM_P2
2023/07/21 00:03:30;;;;;;;;;;;17.40;99.90;;;;;;8366418;28;19925;-70
2023/07/21 00:07:32;;;;;;;;;;;17.30;99.90;;;;;;8365150;28;19983;-70
2023/07/21 00:11:34;;;;;;;;;;;17.30;99.90;;;;;;8383392;28;20391;-70
2023/07/21 00:15:36;;;;;;;;;;;17.30;99.90;;;;;;8387148;28;19931;-70
2023/07/21 00:19:37;;;;;;;;;;;17.30;99.90;;;;;;8388267;28;19924;-70
2023/07/21 00:23:39;;;;;;;;;;;17.20;99.90;;;;;;8357924;28;19925;-70
2023/07/21 00:27:42;;;;;;;;;;;17.20;99.90;;;;;;8373358;28;19996;-70
2023/07/21 00:31:48;;;;;;;;;;;17.10;99.90;;;;;;8370695;28;20311;-70
2023/07/21 00:35:50;;;;;;;;;;;17.10;99.90;;;;;;8392740;28;19964;-70
2023/07/21 00:39:52;;;;;;;;;;;17.10;99.90;;;;;;8368924;28;19929;-70
2023/07/21 00:43:54;;;;;;;;;;;17.00;99.90;;;;;;8366384;28;19925;-70
2023/07/21 00:47:56;;;;;;;;;;;17.00;99.90;;;;;;8374854;28;19924;-70
2023/07/21 00:51:58;;;;;;;;;;;17.00;99.90;;;;;;8382185;28;20387;-70
2023/07/21 00:56:00;;;;;;;;;;;16.90;99.90;;;;;;8394755;28;19925;-69
2023/07/21 01:00:06;;;;;;;;;;;16.90;99.90;;;;;;8386873;28;19924;-70
2023/07/21 01:04:08;;;;;;;;;;;16.80;99.90;;;;;;8387217;28;19925;-70
2023/07/21 01:08:11;;;;;;;;;;;16.80;99.90;;;;;;8372112;28;19936;-70
2023/07/21 01:12:13;;;;;;;;;;;16.70;99.90;;;;;;8364864;28;19971;-70
2023/07/21 01:16:16;;;;;;;;;;;16.70;99.90;;;;;;8349645;28;19925;-70
2023/07/21 01:20:22;;;;;;;;;;;16.70;99.90;;;;;;8392822;28;19928;-70
2023/07/21 01:24:28;;;;;;;;;;;16.60;99.90;;;;;;8368967;28;19970;-70
2023/07/21 01:38:37;;;;;;;;;;;16.40;99.90;;;;;;8358174;28;20463;-70
2023/07/21 01:42:40;;;;;;;;;;;16.30;99.90;;;;;;8370179;28;20018;-70
2023/07/21 01:46:41;;;;;;;;;;;16.30;99.90;;;;;;8391383;28;20232;-70
2023/07/21 01:50:44;;;;;;;;;;;16.20;99.90;;;;;;8378087;28;20291;-69
2023/07/21 01:54:55;;;;;;;;;;;16.20;99.90;;;;;;8383277;28;19925;-70
2023/07/21 01:59:02;;;;;;;;;;;16.10;99.90;;;;;;8386487;28;19978;-70
2023/07/21 02:03:04;;;;;;;;;;;16.00;99.90;;;;;;8391505;28;19924;-70
2023/07/21 02:07:05;;;;;;;;;;;16.00;99.90;;;;;;8365179;28;19924;-70
2023/07/21 02:11:07;;;;;;;;;;;15.90;99.90;;;;;;8359875;28;19929;-70
2023/07/21 02:15:09;;;;;;;;;;;15.90;99.90;;;;;;8379100;28;19925;-70
2023/07/21 02:19:12;;;;;;;;;;;15.90;99.90;;;;;;8383589;28;19931;-70
2023/07/21 02:23:14;;;;;;;;;;;15.80;99.90;;;;;;8354498;28;20300;-70
2023/07/21 02:27:15;;;;;;;;;;;15.70;99.90;;;;;;8376941;28;19925;-70
2023/07/21 02:31:18;;;;;;;;;;;15.70;99.90;;;;;;8378016;28;19932;-70
2023/07/21 02:35:19;;;;;;;;;;;15.60;99.90;;;;;;8392411;28;19925;-70
2023/07/21 02:39:21;;;;;;;;;;;15.60;99.90;;;;;;8383767;28;20054;-70
2023/07/21 02:43:23;;;;;;;;;;;15.50;99.90;;;;;;8381250;28;19928;-70
2023/07/21 02:47:26;;;;;;;;;;;15.50;99.90;;;;;;8390937;28;20439;-70
2023/07/21 02:51:28;;;;;;;;;;;15.50;99.90;;;;;;8391729;28;20349;-70
2023/07/21 02:55:30;;;;;;;;;;;15.40;99.90;;;;;;8384758;28;19932;-70
2023/07/21 02:59:32;;;;;;;;;;;15.40;99.90;;;;;;8380908;28;20011;-70
2023/07/21 03:03:34;;;;;;;;;;;15.30;99.90;;;;;;8369699;28;19926;-70
2023/07/21 03:07:37;;;;;;;;;;;15.20;99.90;;;;;;8394271;28;19970;-70
2023/07/21 03:11:38;;;;;;;;;;;15.20;99.90;;;;;;8378335;28;20391;-70
2023/07/21 03:15:40;;;;;;;;;;;15.10;99.90;;;;;;8374052;28;20334;-70
2023/07/21 03:19:42;;;;;;;;;;;15.10;99.90;;;;;;8398278;28;19925;-70
2023/07/21 03:23:44;;;;;;;;;;;15.10;99.90;;;;;;8350555;28;19986;-69
2023/07/21 03:27:46;;;;;;;;;;;15.10;99.90;;;;;;8367805;28;19925;-70
2023/07/21 03:31:48;;;;;;;;;;;15.10;99.90;;;;;;8380533;28;19929;-70
2023/07/21 03:36:04;;;;;;;;;;;15.10;99.90;;;;;;8384838;28;19924;-70
2023/07/21 03:40:06;;;;;;;;;;;15.10;99.90;;;;;;8376602;28;20368;-70
2023/07/21 03:44:09;;;;;;;;;;;15.10;99.90;;;;;;8373287;28;19924;-70
2023/07/21 03:48:12;;;;;;;;;;;15.00;99.90;;;;;;8370220;28;19933;-70
2023/07/21 03:52:15;;;;;;;;;;;15.00;99.90;;;;;;8378812;28;20023;-70
2023/07/21 03:56:18;;;;;;;;;;;15.00;99.90;;;;;;8399542;28;20413;-70
2023/07/21 04:00:20;;;;;;;;;;;15.00;99.90;;;;;;8362487;28;19925;-70
2023/07/21 04:04:22;;;;;;;;;;;15.00;99.90;;;;;;8371692;28;19924;-70
2023/07/21 04:08:24;;;;;;;;;;;15.00;99.90;;;;;;8381620;28;20379;-69
2023/07/21 04:12:25;;;;;;;;;;;15.00;99.90;;;;;;8382727;28;19928;-69
2023/07/21 04:16:27;;;;;;;;;;;15.00;99.90;;;;;;8378348;28;20972;-69
2023/07/21 04:20:30;;;;;;;;;;;14.90;99.90;;;;;;8379745;28;19971;-69
2023/07/21 04:24:33;;;;;;;;;;;14.90;99.90;;;;;;8364255;28;19925;-69
2023/07/21 04:28:35;;;;;;;;;;;14.90;99.90;;;;;;8381853;28;19974;-69
2023/07/21 04:32:39;;;;;;;;;;;14.80;99.90;;;;;;8370036;28;19924;-69
2023/07/21 04:36:40;;;;;;;;;;;14.80;99.90;;;;;;8381858;28;20517;-70
2023/07/21 04:40:44;;;;;;;;;;;14.80;99.90;;;;;;8382969;28;19925;-70
2023/07/21 04:44:48;;;;;;;;;;;14.80;99.90;;;;;;8387237;28;20360;-70
2023/07/21 04:48:49;;;;;;;;;;;14.80;99.90;;;;;;8377395;28;19924;-70
2023/07/21 04:52:51;;;;;;;;;;;14.80;99.90;;;;;;8383237;28;19929;-70
2023/07/21 04:56:53;;;;;;;;;;;14.90;99.90;;;;;;8379666;28;19925;-69
2023/07/21 05:00:55;;;;;;;;;;;15.00;99.90;;;;;;8387331;28;19924;-69
2023/07/21 05:05:01;;;;;;;;;;;15.10;99.90;;;;;;8372415;28;20382;-69
2023/07/21 05:09:03;;;;;;;;;;;15.10;99.90;;;;;;8363335;28;20026;-69
2023/07/21 05:13:05;;;;;;;;;;;15.20;99.90;;;;;;8370461;28;19924;-69
2023/07/21 05:17:07;;;;;;;;;;;15.30;99.90;;;;;;8378831;28;19924;-69
2023/07/21 05:21:09;;;;;;;;;;;15.40;99.90;;;;;;8384060;28;20459;-70
2023/07/21 05:25:12;;;;;;;;;;;15.50;99.90;;;;;;8363407;28;19924;-70
2023/07/21 05:29:14;;;;;;;;;;;15.60;99.90;;;;;;8366874;28;19978;-70
2023/07/21 05:33:15;;;;;;;;;;;15.70;99.90;;;;;;8386738;28;19969;-70
2023/07/21 05:37:17;;;;;;;;;;;15.80;99.90;;;;;;8386155;28;20442;-70
2023/07/21 05:41:19;;;;;;;;;;;15.90;99.90;;;;;;8385092;28;19924;-70
2023/07/21 05:45:21;;;;;;;;;;;15.90;99.90;;;;;;8373421;28;19924;-70
2023/07/21 05:49:25;;;;;;;;;;;16.10;99.90;;;;;;8380241;28;19925;-70
2023/07/21 06:03:47;;;;;;;;;;;16.30;99.90;;;;;;8381790;28;19996;-70
2023/07/21 06:07:49;;;;;;;;;;;16.40;99.90;;;;;;8390594;28;19928;-70
2023/07/21 06:11:51;;;;;;;;;;;16.50;99.90;;;;;;8393271;28;19978;-70
2023/07/21 06:15:53;;;;;;;;;;;16.60;99.90;;;;;;8382196;28;20384;-70
2023/07/21 06:19:54;;;;;;;;;;;16.90;99.90;;;;;;8398310;28;20040;-70
2023/07/21 06:23:58;;;;;;;;;;;17.00;99.90;;;;;;8383052;28;20337;-70
2023/07/21 06:28:00;;;;;;;;;;;17.20;99.90;;;;;;8386249;28;19929;-70
2023/07/21 06:32:02;;;;;;;;;;;17.30;99.90;;;;;;8373959;28;19978;-70
2023/07/21 06:36:03;;;;;;;;;;;17.40;99.90;;;;;;8353969;28;19924;-70
2023/07/21 06:40:09;;;;;;;;;;;17.50;99.90;;;;;;8369345;28;19925;-70
2023/07/21 06:44:11;;;;;;;;;;;17.50;99.90;;;;;;8391030;28;20386;-70
2023/07/21 06:48:12;;;;;;;;;;;17.60;99.90;;;;;;8381315;28;19932;-70
2023/07/21 06:52:14;;;;;;;;;;;17.60;99.90;;;;;;8391490;28;19925;-70
2023/07/21 06:56:16;;;;;;;;;;;17.60;99.90;;;;;;8394159;28;19933;-70
2023/07/21 07:00:18;;;;;;;;;;;17.60;99.90;;;;;;8387093;28;20361;-70
2023/07/21 07:04:21;;;;;;;;;;;17.60;99.90;;;;;;8370620;28;20461;-70
2023/07/21 07:08:23;;;;;;;;;;;17.70;99.90;;;;;;8375984;28;20276;-70
2023/07/21 07:12:24;;;;;;;;;;;17.70;99.90;;;;;;8378681;28;20379;-70
2023/07/21 07:16:26;;;;;;;;;;;17.80;99.90;;;;;;8376774;28;20334;-70
2023/07/21 07:20:28;;;;;;;;;;;17.90;99.90;;;;;;8374742;28;19931;-70
2023/07/21 07:24:30;;;;;;;;;;;17.90;99.90;;;;;;8357364;28;19928;-70
2023/07/21 07:28:31;;;;;;;;;;;17.90;99.90;;;;;;8383706;28;19928;-70
2023/07/21 07:32:33;;;;;;;;;;;17.90;99.90;;;;;;8387419;28;20374;-70
2023/07/21 07:36:35;;;;;;;;;;;17.90;99.90;;;;;;8388971;28;20302;-70
2023/07/21 07:40:37;;;;;;;;;;;17.90;99.90;;;;;;8391830;28;19994;-70
2023/07/21 07:44:39;;;;;;;;;;;17.90;99.90;;;;;;8380962;28;19925;-70
2023/07/21 07:48:41;;;;;;;;;;;17.90;99.90;;;;;;8373564;28;19925;-70
2023/07/21 07:52:43;;;;;;;;;;;17.90;99.90;;;;;;8378553;28;19924;-70
2023/07/21 07:56:46;;;;;;;;;;;17.90;99.90;;;;;;8363693;28;19925;-70
2023/07/21 08:00:48;;;;;;;;;;;18.00;99.90;;;;;;8379422;28;19924;-70
2023/07/21 08:04:50;;;;;;;;;;;18.10;99.90;;;;;;8370697;28;19929;-70
2023/07/21 08:08:51;;;;;;;;;;;18.10;99.90;;;;;;8340931;28;19925;-70
2023/07/21 08:12:54;;;;;;;;;;;18.20;99.90;;;;;;8334355;28;19925;-70
2023/07/21 08:16:55;;;;;;;;;;;18.30;99.90;;;;;;8325624;28;19930;-70
2023/07/21 08:20:57;;;;;;;;;;;18.30;99.90;;;;;;8341261;28;19987;-70
2023/07/21 08:24:59;;;;;;;;;;;18.40;99.90;;;;;;8331000;28;20400;-70
2023/07/21 08:29:00;;;;;;;;;;;18.40;99.90;;;;;;8339435;28;19940;-70
2023/07/21 08:33:02;;;;;;;;;;;18.50;99.90;;;;;;8325160;28;19979;-70
2023/07/21 08:37:06;;;;;;;;;;;18.50;99.90;;;;;;8318195;28;19925;-70
2023/07/21 08:41:09;;;;;;;;;;;18.50;99.90;;;;;;8328284;28;19925;-70
2023/07/21 08:45:12;;;;;;;;;;;18.50;99.90;;;;;;8330343;28;19933;-70
2023/07/21 08:49:17;;;;;;;;;;;18.60;99.90;;;;;;8338830;28;19940;-70
2023/07/21 08:53:20;;;;;;;;;;;18.70;99.90;;;;;;8343574;28;19972;-70
2023/07/21 08:57:22;;;;;;;;;;;18.70;99.90;;;;;;8327602;28;19929;-70
2023/07/21 09:01:23;;;;;;;;;;;18.80;99.90;;;;;;8326158;28;20375;-70
2023/07/21 09:05:26;;;;;;;;;;;18.90;99.90;;;;;;8337189;28;19940;-70
2023/07/21 09:09:28;;;;;;;;;;;18.90;99.90;;;;;;8328461;28;20296;-71
2023/07/21 09:13:31;;;;;;;;;;;19.00;99.90;;;;;;8324443;28;19925;-70
2023/07/21 09:17:33;;;;;;;;;;;19.00;99.90;;;;;;8328533;28;19924;-70
2023/07/21 09:26:38;;;;;;;;;;;19.20;99.90;;;;;;8327397;28;19930;-70
2023/07/21 09:30:51;;;;;;;;;;;19.20;99.90;;;;;;8332404;28;19935;-70
2023/07/21 09:34:57;;;;;;;;;;;19.10;99.90;;;;;;8327658;28;20291;-70
2023/07/21 09:39:04;;;;;;;;;;;19.10;99.90;;;;;;8330304;28;20347;-70
2023/07/21 09:43:07;;;;;;;;;;;19.10;99.90;;;;;;8339640;28;19931;-70
2023/07/21 09:47:09;;;;;;;;;;;19.10;99.90;;;;;;8329527;28;19931;-70
2023/07/21 09:51:11;;;;;;;;;;;19.30;99.90;;;;;;8326408;28;19937;-70
2023/07/21 09:55:15;;;;;;;;;;;19.40;99.90;;;;;;8325365;28;19925;-70
2023/07/21 09:59:18;;;;;;;;;;;19.40;99.90;;;;;;8329241;28;19970;-70
2023/07/21 10:03:23;;;;;;;;;;;19.50;99.90;;;;;;8341189;28;19933;-70
2023/07/21 10:07:26;;;;;;;;;;;19.50;99.90;;;;;;8323899;28;19929;-71
2023/07/21 10:11:28;;;;;;;;;;;19.70;99.90;;;;;;8327676;28;19947;-70
2023/07/21 10:15:31;;;;;;;;;;;19.80;99.90;;;;;;8337685;28;19925;-70
2023/07/21 10:19:42;;;;;;;;;;;19.80;99.90;;;;;;8330393;28;19924;-70
2023/07/21 10:23:50;;;;;;;;;;;19.90;99.90;;;;;;8323837;28;20319;-70
2023/07/21 10:28:02;;;;;;;;;;;20.00;99.90;;;;;;8325665;28;19948;-71
2023/07/21 10:32:04;;;;;;;;;;;20.10;99.90;;;;;;8326446;28;19925;-71
2023/07/21 10:36:13;;;;;;;;;;;20.20;99.90;;;;;;8324918;28;19925;-70
2023/07/21 10:40:15;;;;;;;;;;;20.20;99.90;;;;;;8337656;28;19939;-70
2023/07/21 10:44:17;;;;;;;;;;;20.30;99.90;;;;;;8339480;28;20421;-70
2023/07/21 10:48:19;;;;;;;;;;;20.40;99.90;;;;;;8329885;28;19925;-70
2023/07/21 10:52:22;;;;;;;;;;;20.40;99.90;;;;;;8351276;28;20368;-70
2023/07/21 10:56:24;;;;;;;;;;;20.40;99.90;;;;;;8331307;28;19933;-71
2023/07/21 11:00:25;;;;;;;;;;;20.50;99.90;;;;;;8333017;28;19991;-71
2023/07/21 11:04:27;;;;;;;;;;;20.50;99.90;;;;;;8333783;28;19954;-70
2023/07/21 11:08:29;;;;;;;;;;;20.70;99.90;;;;;;8328748;28;20431;-71
2023/07/21 11:12:31;;;;;;;;;;;20.70;99.90;;;;;;8334232;28;19960;-71
2023/07/21 11:16:32;;;;;;;;;;;20.70;99.90;;;;;;8331023;28;19931;-71
2023/07/21 11:20:35;;;;;;;;;;;20.70;99.90;;;;;;8334004;28;20288;-71
2023/07/21 11:24:37;;;;;;;;;;;20.80;99.90;;;;;;8334384;28;19995;-71
2023/07/21 11:28:39;;;;;;;;;;;20.70;99.90;;;;;;8330132;28;20292;-71
2023/07/21 11:32:41;;;;;;;;;;;20.70;99.90;;;;;;8314520;28;19949;-71
2023/07/21 11:36:44;;;;;;;;;;;20.50;99.90;;;;;;8330689;28;19929;-71
2023/07/21 11:40:46;;;;;;;;;;;20.40;99.90;;;;;;8335897;28;19925;-70
2023/07/21 11:44:48;;;;;;;;;;;20.40;99.90;;;;;;8327539;28;20349;-70
2023/07/21 11:48:50;;;;;;;;;;;20.20;99.90;;;;;;8335310;28;19925;-70
2023/07/21 11:52:52;;;;;;;;;;;20.10;99.90;;;;;;8330707;28;19979;-71
2023/07/21 11:56:55;;;;;;;;;;;20.00;99.90;;;;;;8325938;28;20451;-71
2023/07/21 12:00:56;;;;;;;;;;;20.00;99.90;;;;;;8315626;28;19929;-71
2023/07/21 12:04:58;;;;;;;;;;;20.10;99.90;;;;;;8325804;28;19924;-70
2023/07/21 12:09:00;;;;;;;;;;;20.00;99.90;;;;;;8328877;28;19929;-70
2023/07/21 12:13:03;;;;;;;;;;;20.00;99.90;;;;;;8328807;28;19944;-70
2023/07/21 12:17:06;;;;;;;;;;;19.90;99.90;;;;;;8332600;28;19926;-71
2023/07/21 12:21:08;;;;;;;;;;;19.70;99.90;;;;;;8332400;28;19925;-71
2023/07/21 12:25:10;;;;;;;;;;;19.50;99.90;;;;;;8328845;28;20339;-71
2023/07/21 12:29:11;;;;;;;;;;;19.10;99.90;;;;;;8345676;28;19929;-71
2023/07/21 12:33:20;;;;;;;;;;;18.80;99.90;;;;;;8342954;28;20070;-71
2023/07/21 12:37:22;;;;;;;;;;;18.60;99.90;;;;;;8311975;28;19936;-71
2023/07/21 12:41:23;;;;;;;;;;;18.50;99.90;;;;;;8328924;28;19933;-71
2023/07/21 12:45:25;;;;;;;;;;;18.30;99.90;;;;;;8330530;28;20397;-71
2023/07/21 12:49:27;;;;;;;;;;;18.30;99.90;;;;;;8330059;28;20336;-70
2023/07/21 12:53:29;;;;;;;;;;;18.40;99.90;;;;;;8328851;28;19932;-70
2023/07/21 12:57:30;;;;;;;;;;;18.40;99.90;;;;;;8345661;28;19979;-71
2023/07/21 13:01:32;;;;;;;;;;;18.50;99.90;;;;;;8329413;28;19932;-70
2023/07/21 13:10:40;;;;;;;;;;;18.50;99.90;;;;;;8327245;28;19979;-70
2023/07/21 13:14:42;;;;;;;;;;;18.40;99.90;;;;;;8335086;28;19983;-70
2023/07/21 13:18:44;;;;;;;;;;;18.40;99.90;;;;;;8330162;28;19936;-70
2023/07/21 13:22:48;;;;;;;;;;;18.50;99.90;;;;;;8326886;28;19929;-71
2023/07/21 13:26:50;;;;;;;;;;;18.50;99.90;;;;;;8327748;28;19925;-70
2023/07/21 13:30:51;;;;;;;;;;;18.50;99.90;;;;;;8325433;28;20360;-70
2023/07/21 13:34:53;;;;;;;;;;;18.50;99.90;;;;;;8324037;28;20365;-71
2023/07/21 13:38:55;;;;;;;;;;;18.70;99.90;;;;;;8324942;28;19932;-71
2023/07/21 13:42:56;;;;;;;;;;;18.90;99.90;;;;;;8342170;28;20317;-71
2023/07/21 13:46:58;;;;;;;;;;;19.20;99.90;;;;;;8330138;28;20010;-70
2023/07/21 13:51:00;;;;;;;;;;;19.40;99.90;;;;;;8343436;28;19932;-71
2023/07/21 13:55:02;;;;;;;;;;;19.50;99.90;;;;;;8324857;28;19929;-70
2023/07/21 13:59:03;;;;;;;;;;;19.70;99.90;;;;;;8323247;28;19975;-71
2023/07/21 14:03:05;;;;;;;;;;;19.70;99.90;;;;;;8329829;28;20284;-70
2023/07/21 14:07:08;;;;;;;;;;;19.60;99.90;;;;;;8327761;28;20004;-71
2023/07/21 14:11:10;;;;;;;;;;;19.50;99.90;;;;;;8327625;28;19929;-70
2023/07/21 14:15:12;;;;;;;;;;;19.50;99.90;;;;;;8323919;28;20387;-71
2023/07/21 14:19:14;;;;;;;;;;;19.40;99.90;;;;;;8325195;28;19929;-70
2023/07/21 14:23:16;;;;;;;;;;;19.40;99.90;;;;;;8346640;28;19987;-71
2023/07/21 14:27:18;;;;;;;;;;;19.40;99.90;;;;;;8340927;28;19932;-71
2023/07/21 14:31:20;;;;;;;;;;;19.50;99.90;;;;;;8329598;28;19983;-71
2023/07/21 14:35:22;;;;;;;;;;;19.60;99.90;;;;;;8313430;28;19996;-71
2023/07/21 14:39:25;;;;;;;;;;;19.60;99.90;;;;;;8334561;28;19983;-70
2023/07/21 14:43:27;;;;;;;;;;;19.70;99.90;;;;;;8328177;28;19929;-70
2023/07/21 14:47:30;;;;;;;;;;;19.70;99.90;;;;;;8334336;28;19933;-71
2023/07/21 14:51:36;;;;;;;;;;;19.90;99.90;;;;;;8329267;28;21586;-71
2023/07/21 14:55:37;;;;;;;;;;;20.00;99.90;;;;;;8347281;28;20379;-71
2023/07/21 14:59:39;;;;;;;;;;;20.00;99.90;;;;;;8329167;28;20373;-71
2023/07/21 15:03:41;;;;;;;;;;;20.20;99.90;;;;;;8344471;28;19925;-71
2023/07/21 15:07:43;;;;;;;;;;;20.40;99.90;;;;;;8331110;28;20392;-70
2023/07/21 15:11:45;;;;;;;;;;;20.40;99.90;;;;;;8354274;28;19929;-70
2023/07/21 15:15:48;;;;;;;;;;;20.30;99.90;;;;;;8343073;28;19993;-70
2023/07/21 15:19:49;;;;;;;;;;;20.30;99.90;;;;;;8348875;28;19925;-70
2023/07/21 15:23:51;;;;;;;;;;;20.30;99.90;;;;;;8328212;28;19933;-71
2023/07/21 15:27:52;;;;;;;;;;;20.40;99.90;;;;;;8337916;28;20284;-71
2023/07/21 15:31:54;;;;;;;;;;;20.40;99.90;;;;;;8330689;28;19929;-71
2023/07/21 15:35:56;;;;;;;;;;;20.40;99.90;;;;;;8329776;28;19948;-71
2023/07/21 15:39:59;;;;;;;;;;;20.50;99.90;;;;;;8328044;28;19971;-71
2023/07/21 15:44:01;;;;;;;;;;;20.40;99.90;;;;;;8330068;28;19925;-71
2023/07/21 15:48:03;;;;;;;;;;;20.30;99.90;;;;;;8329831;28;19925;-70
2023/07/21 15:52:05;;;;;;;;;;;20.40;99.90;;;;;;8331136;28;20775;-71
2023/07/21 15:56:07;;;;;;;;;;;20.50;99.90;;;;;;8328492;28;19956;-71
2023/07/21 16:00:15;;;;;;;;;;;20.80;99.90;;;;;;8329522;28;19952;-71
2023/07/21 16:04:18;;;;;;;;;;;21.10;99.90;;;;;;8328879;28;19952;-71
2023/07/21 16:08:24;;;;;;;;;;;21.20;99.90;;;;;;8332237;28;19960;-71
2023/07/21 16:12:26;;;;;;;;;;;21.10;99.90;;;;;;8330894;28;19979;-71
2023/07/21 16:16:28;;;;;;;;;;;20.80;99.90;;;;;;8325736;28;19926;-71
2023/07/21 16:20:30;;;;;;;;;;;20.90;99.90;;;;;;8346718;28;19938;-71
2023/07/21 16:24:32;;;;;;;;;;;21.20;99.90;;;;;;8344042;28;20455;-71
2023/07/21 16:28:34;;;;;;;;;;;21.30;99.90;;;;;;8334060;28;19925;-71
2023/07/21 16:32:35;;;;;;;;;;;21.20;99.90;;;;;;8341444;28;19925;-71
2023/07/21 16:36:37;;;;;;;;;;;21.20;99.90;;;;;;8329605;28;19925;-71
2023/07/21 16:40:39;;;;;;;;;;;20.90;99.90;;;;;;8324232;28;19977;-71
2023/07/21 16:44:40;;;;;;;;;;;20.70;99.90;;;;;;8343411;28;19929;-72
2023/07/21 16:48:42;;;;;;;;;;;20.40;99.90;;;;;;8323559;28;19956;-71
2023/07/21 16:52:44;;;;;;;;;;;20.40;99.90;;;;;;8330392;28;19970;-71
2023/07/21 16:56:46;;;;;;;;;;;20.50;99.90;;;;;;8344899;28;19940;-72
2023/07/21 17:00:47;;;;;;;;;;;20.80;99.90;;;;;;8328466;28;19975;-71
2023/07/21 17:04:51;;;;;;;;;;;20.90;99.90;;;;;;8325991;28;19925;-71
2023/07/21 17:08:53;;;;;;;;;;;20.80;99.90;;;;;;8324018;28;19979;-71
2023/07/21 17:12:55;;;;;;;;;;;20.70;99.90;;;;;;8326606;28;20382;-71
2023/07/21 17:16:57;;;;;;;;;;;20.50;99.90;;;;;;8344187;28;20295;-71
2023/07/21 17:20:58;;;;;;;;;;;20.40;99.90;;;;;;8343036;28;19933;-71
2023/07/21 17:25:00;;;;;;;;;;;20.30;99.90;;;;;;8324723;28;19932;-71
2023/07/21 17:29:01;;;;;;;;;;;20.10;99.90;;;;;;8324052;28;20006;-70
2023/07/21 17:33:03;;;;;;;;;;;20.00;99.90;;;;;;8324663;28;19929;-71
2023/07/21 17:37:05;;;;;;;;;;;20.00;99.90;;;;;;8327930;28;19971;-71
2023/07/21 17:41:08;;;;;;;;;;;19.90;99.90;;;;;;8331589;28;20034;-71
2023/07/21 17:45:11;;;;;;;;;;;19.90;99.90;;;;;;8331330;28;19925;-71
2023/07/21 17:49:13;;;;;;;;;;;19.90;99.90;;;;;;8325856;28;19944;-71
2023/07/21 17:53:15;;;;;;;;;;;19.80;99.90;;;;;;8331678;28;19925;-71
2023/07/21 17:57:17;;;;;;;;;;;19.70;99.90;;;;;;8326039;28;19925;-71
2023/07/21 18:01:19;;;;;;;;;;;19.50;99.90;;;;;;8337475;28;19932;-70
2023/07/21 18:05:21;;;;;;;;;;;19.40;99.90;;;;;;8330033;28;19925;-71
2023/07/21 18:09:22;;;;;;;;;;;19.30;99.90;;;;;;8331876;28;20369;-71
2023/07/21 18:13:27;;;;;;;;;;;19.20;99.90;;;;;;8335442;28;19932;-70
2023/07/21 18:17:28;;;;;;;;;;;19.10;99.90;;;;;;8330478;28;20403;-70
2023/07/21 18:21:31;;;;;;;;;;;19.00;99.90;;;;;;8347448;28;20373;-70
2023/07/21 18:25:33;;;;;;;;;;;18.80;99.90;;;;;;8332348;28;20234;-71
2023/07/21 18:29:34;;;;;;;;;;;18.70;99.90;;;;;;8328545;28;19925;-70
2023/07/21 18:33:36;;;;;;;;;;;18.70;99.90;;;;;;8333087;28;19929;-70
2023/07/21 18:37:38;;;;;;;;;;;18.60;99.90;;;;;;8329937;28;20442;-70
2023/07/21 18:41:40;;;;;;;;;;;18.60;99.90;;;;;;8346474;28;19933;-70
2023/07/21 18:45:42;;;;;;;;;;;18.50;99.90;;;;;;8342174;28;19932;-70
2023/07/21 18:49:44;;;;;;;;;;;18.40;99.90;;;;;;8330702;28;19929;-70
2023/07/21 18:53:45;;;;;;;;;;;18.30;99.90;;;;;;8329905;28;19925;-70
2023/07/21 18:57:47;;;;;;;;;;;18.30;99.90;;;;;;8332689;28;24988;-70
2023/07/21 19:01:49;;;;;;;;;;;18.30;99.90;;;;;;8333025;28;20479;-70
2023/07/21 19:05:51;;;;;;;;;;;18.20;99.90;;;;;;8331529;28;19929;-70
2023/07/21 19:09:53;;;;;;;;;;;18.20;99.90;;;;;;8332696;28;20284;-70
2023/07/21 19:13:54;;;;;;;;;;;18.10;99.90;;;;;;8344694;28;19929;-70
2023/07/21 19:17:56;;;;;;;;;;;18.10;99.90;;;;;;8349763;28;19929;-70
2023/07/21 19:21:58;;;;;;;;;;;18.10;99.90;;;;;;8328787;28;20016;-70
2023/07/21 19:25:59;;;;;;;;;;;18.00;99.90;;;;;;8331003;28;19925;-70
2023/07/21 19:30:01;;;;;;;;;;;18.00;99.90;;;;;;8329530;28;19926;-71
2023/07/21 19:34:03;;;;;;;;;;;18.00;99.90;;;;;;8327032;28;19982;-71
2023/07/21 19:38:05;;;;;;;;;;;18.00;99.90;;;;;;8344792;28;19956;-70
2023/07/21 19:42:06;;;;;;;;;;;18.00;99.90;;;;;;8328667;28;19924;-71
2023/07/21 19:46:12;;;;;;;;;;;17.90;99.90;;;;;;8328161;28;19932;-70
2023/07/21 19:50:16;;;;;;;;;;;17.70;99.90;;;;;;8334637;28;20292;-71
2023/07/21 19:54:18;;;;;;;;;;;17.60;99.90;;;;;;8332283;28;19925;-71
2023/07/21 19:58:20;;;;;;;;;;;17.40;99.90;;;;;;8351098;28;19926;-71
2023/07/21 20:02:22;;;;;;;;;;;17.20;99.90;;;;;;8333584;28;19929;-71
2023/07/21 20:06:24;;;;;;;;;;;17.10;99.90;;;;;;8326629;28;19994;-71
2023/07/21 20:10:25;;;;;;;;;;;17.10;99.90;;;;;;8321451;28;19992;-71
2023/07/21 20:14:27;;;;;;;;;;;17.10;99.90;;;;;;8348482;28;20257;-71
2023/07/21 20:18:29;;;;;;;;;;;17.20;99.90;;;;;;8350806;28;19948;-71
2023/07/21 20:22:30;;;;;;;;;;;17.20;99.90;;;;;;8328203;28;20056;-71
2023/07/21 20:26:33;;;;;;;;;;;17.20;99.90;;;;;;8330724;28;20335;-71
2023/07/21 20:30:38;;;;;;;;;;;17.30;99.90;;;;;;8329169;28;19925;-71
2023/07/21 20:34:40;;;;;;;;;;;17.30;99.90;;;;;;8326211;28;19936;-71
2023/07/21 20:38:41;;;;;;;;;;;17.30;99.90;;;;;;8342930;28;19929;-71
2023/07/21 20:42:43;;;;;;;;;;;17.20;99.90;;;;;;8347080;28;19925;-71
2023/07/21 20:46:45;;;;;;;;;;;17.20;99.90;;;;;;8325711;28;19982;-71
2023/07/21 20:50:46;;;;;;;;;;;17.10;99.90;;;;;;8327460;28;19929;-71
2023/07/21 20:54:48;;;;;;;;;;;17.10;99.90;;;;;;8325493;28;19925;-71
2023/07/21 20:58:50;;;;;;;;;;;17.10;99.90;;;;;;8325792;28;20360;-71
2023/07/21 21:02:52;;;;;;;;;;;17.10;99.90;;;;;;8345147;28;19924;-71
2023/07/21 21:06:54;;;;;;;;;;;17.00;99.90;;;;;;8368814;28;19987;-71
2023/07/21 21:10:55;;;;;;;;;;;17.00;99.90;;;;;;8380832;28;20399;-71
2023/07/21 21:14:57;;;;;;;;;;;17.00;99.90;;;;;;8385783;28;19925;-71
2023/07/21 21:19:00;;;;;;;;;;;16.90;99.90;;;;;;8368473;28;19940;-71
2023/07/21 21:23:02;;;;;;;;;;;16.90;99.90;;;;;;8366553;28;19936;-71
2023/07/21 21:27:03;;;;;;;;;;;16.90;99.90;;;;;;8376220;28;19928;-71
2023/07/21 21:31:05;;;;;;;;;;;16.90;99.90;;;;;;8378269;28;19954;-71
2023/07/21 21:35:07;;;;;;;;;;;16.90;99.90;;;;;;8390168;28;20436;-71
2023/07/21 21:39:09;;;;;;;;;;;16.90;99.90;;;;;;8391254;28;19932;-71
2023/07/21 21:43:10;;;;;;;;;;;16.90;99.90;;;;;;8361062;28;19951;-71
2023/07/21 21:47:12;;;;;;;;;;;16.90;99.90;;;;;;8373189;28;19970;-71
2023/07/21 21:51:16;;;;;;;;;;;16.90;99.90;;;;;;8375990;28;19936;-71
2023/07/21 21:55:17;;;;;;;;;;;16.80;99.90;;;;;;8376569;28;20047;-71
2023/07/21 21:59:19;;;;;;;;;;;16.80;99.90;;;;;;8382970;28;19924;-71
2023/07/21 22:03:21;;;;;;;;;;;16.80;99.90;;;;;;8385271;28;19924;-71
2023/07/21 22:07:22;;;;;;;;;;;16.70;99.90;;;;;;8373662;28;19924;-71
2023/07/21 22:11:24;;;;;;;;;;;16.70;99.90;;;;;;8380647;28;19978;-71
2023/07/21 22:15:26;;;;;;;;;;;16.60;99.90;;;;;;8363450;28;20387;-71
2023/07/21 22:19:30;;;;;;;;;;;16.60;99.90;;;;;;8386220;28;19986;-71
2023/07/21 22:23:32;;;;;;;;;;;16.60;99.90;;;;;;8357400;28;19932;-71
2023/07/21 22:27:33;;;;;;;;;;;16.50;99.90;;;;;;8366533;28;19933;-71
2023/07/21 22:31:36;;;;;;;;;;;16.50;99.90;;;;;;8368958;28;20338;-71
2023/07/21 22:35:38;;;;;;;;;;;16.50;99.90;;;;;;8377587;28;19976;-71
2023/07/21 22:39:40;;;;;;;;;;;16.50;99.90;;;;;;8373411;28;20325;-71
2023/07/21 22:43:41;;;;;;;;;;;16.40;99.90;;;;;;8369475;28;19924;-71
2023/07/21 22:47:43;;;;;;;;;;;16.40;99.90;;;;;;8386857;28;20444;-71
2023/07/21 22:51:45;;;;;;;;;;;16.30;99.90;;;;;;8395635;28;19932;-71
2023/07/21 22:55:47;;;;;;;;;;;16.30;99.90;;;;;;8387464;28;19924;-71
2023/07/21 22:59:48;;;;;;;;;;;16.20;99.90;;;;;;8389874;28;19931;-71
2023/07/21 23:03:50;;;;;;;;;;;16.10;99.90;;;;;;8372415;28;20376;-71
2023/07/21 23:07:52;;;;;;;;;;;16.10;99.90;;;;;;8368445;28;20445;-71
2023/07/21 23:11:53;;;;;;;;;;;16.10;99.90;;;;;;8395698;28;19928;-71
2023/07/21 23:15:55;;;;;;;;;;;16.00;99.90;;;;;;8359743;28;19925;-71
2023/07/21 23:19:57;;;;;;;;;;;15.90;99.90;;;;;;8404684;28;19970;-71
2023/07/21 23:23:59;;;;;;;;;;;15.90;99.90;;;;;;8380037;28;19931;-71
2023/07/21 23:28:01;;;;;;;;;;;15.90;99.90;;;;;;8358733;28;20284;-70
2023/07/21 23:32:03;;;;;;;;;;;15.80;99.90;;;;;;8373951;28;19924;-71
2023/07/21 23:36:04;;;;;;;;;;;15.80;99.90;;;;;;8381381;28;19928;-71
2023/07/21 23:40:09;;;;;;;;;;;15.70;99.90;;;;;;8388347;28;20371;-71
2023/07/21 23:44:11;;;;;;;;;;;15.70;99.90;;;;;;8401010;28;19925;-71
2023/07/21 23:48:13;;;;;;;;;;;15.60;99.90;;;;;;8385134;28;20384;-71
2023/07/21 23:52:14;;;;;;;;;;;15.60;99.90;;;;;;8393957;28;19928;-71
2023/07/21 23:56:16;;;;;;;;;;;15.50;99.90;;;;;;8368000;28;19931;-71
